Polk, Nebraska
Current Conditions -  °F | °C
As of 6:15 PM on Wednesday 22 Oct 2014 (Local Time) from KJYR Reporting Station
Light Rain Light Rain  
Wind Chill: 63°   Ceiling: 3700
Heat Index: 63°   Visibility: 4mi
Dew Point: 59°   Wind: 6mph
Humidity: 88%   Direction: 280°W
Pressure: 30.02"   Gusts: 16mph
Location:  41.08°N, 97.78°W
Report Text: KJYR 222315Z AUTO 28005G14KT 4SM -RA FEW002 SCT028 BKN037 17/15 A3002 RMK AO2 P0005
Loading
Personal Weather Stations






























Interactive Weather Map
Tropical Storm Tracking
New forecast layout! Learn more

10-Day Weather Forecast

Advertisements
Track Severe Weather on mobile